sensor_id;sensor_type;location;lat;lon;timestamp;P1;durP1;ratioP1;P2;durP2;ratioP2
40649;SDS011;26342;42.826;23.992;2024-01-15T00:00:38;37.45;;;16.58;;
40649;SDS011;26342;42.826;23.992;2024-01-15T00:03:04;71.22;;;23.45;;
40649;SDS011;26342;42.826;23.992;2024-01-15T00:05:30;48.78;;;23.85;;
40649;SDS011;26342;42.826;23.992;2024-01-15T00:07:55;35.10;;;17.65;;
40649;SDS011;26342;42.826;23.992;2024-01-15T00:10:21;35.83;;;19.00;;
40649;SDS011;26342;42.826;23.992;2024-01-15T00:12:47;45.38;;;19.35;;
40649;SDS011;26342;42.826;23.992;2024-01-15T00:15:12;37.05;;;17.42;;
40649;SDS011;26342;42.826;23.992;2024-01-15T00:17:38;41.30;;;17.38;;
40649;SDS011;26342;42.826;23.992;2024-01-15T00:20:04;44.13;;;17.45;;
40649;SDS011;26342;42.826;23.992;2024-01-15T00:22:30;36.28;;;16.38;;
40649;SDS011;26342;42.826;23.992;2024-01-15T00:24:55;33.53;;;15.07;;
40649;SDS011;26342;42.826;23.992;2024-01-15T00:27:22;40.05;;;15.93;;
40649;SDS011;26342;42.826;23.992;2024-01-15T00:29:47;28.83;;;12.68;;
40649;SDS011;26342;42.826;23.992;2024-01-15T00:32:13;17.08;;;7.30;;
40649;SDS011;26342;42.826;23.992;2024-01-15T00:34:38;45.78;;;17.33;;
40649;SDS011;26342;42.826;23.992;2024-01-15T00:37:04;32.40;;;18.00;;
40649;SDS011;26342;42.826;23.992;2024-01-15T00:39:31;34.35;;;14.50;;
40649;SDS011;26342;42.826;23.992;2024-01-15T00:41:57;28.42;;;16.40;;
40649;SDS011;26342;42.826;23.992;2024-01-15T00:44:22;27.75;;;12.45;;
40649;SDS011;26342;42.826;23.992;2024-01-15T00:46:48;45.42;;;18.33;;
40649;SDS011;26342;42.826;23.992;2024-01-15T00:49:13;41.67;;;14.88;;
40649;SDS011;26342;42.826;23.992;2024-01-15T00:51:39;34.00;;;14.18;;
40649;SDS011;26342;42.826;23.992;2024-01-15T00:54:05;19.92;;;12.35;;
40649;SDS011;26342;42.826;23.992;2024-01-15T00:56:31;8.20;;;5.30;;
40649;SDS011;26342;42.826;23.992;2024-01-15T00:58:56;25.92;;;12.68;;
40649;SDS011;26342;42.826;23.992;2024-01-15T01:01:21;35.15;;;14.80;;
40649;SDS011;26342;42.826;23.992;2024-01-15T01:03:47;34.58;;;18.08;;
40649;SDS011;26342;42.826;23.992;2024-01-15T01:06:12;34.80;;;15.27;;
40649;SDS011;26342;42.826;23.992;2024-01-15T01:08:39;45.63;;;16.98;;
40649;SDS011;26342;42.826;23.992;2024-01-15T01:11:04;28.17;;;15.30;;
40649;SDS011;26342;42.826;23.992;2024-01-15T01:13:31;17.33;;;12.10;;
40649;SDS011;26342;42.826;23.992;2024-01-15T01:15:57;32.83;;;16.27;;
40649;SDS011;26342;42.826;23.992;2024-01-15T01:18:23;59.28;;;20.45;;
40649;SDS011;26342;42.826;23.992;2024-01-15T01:20:48;48.72;;;25.73;;
40649;SDS011;26342;42.826;23.992;2024-01-15T01:23:13;40.30;;;18.33;;
40649;SDS011;26342;42.826;23.992;2024-01-15T01:25:39;30.65;;;16.95;;
40649;SDS011;26342;42.826;23.992;2024-01-15T01:28:04;24.60;;;14.55;;
40649;SDS011;26342;42.826;23.992;2024-01-15T01:30:30;34.97;;;15.77;;
40649;SDS011;26342;42.826;23.992;2024-01-15T01:32:55;39.83;;;15.65;;
40649;SDS011;26342;42.826;23.992;2024-01-15T01:35:21;33.70;;;18.02;;
40649;SDS011;26342;42.826;23.992;2024-01-15T01:37:47;45.88;;;17.52;;
40649;SDS011;26342;42.826;23.992;2024-01-15T01:40:12;34.35;;;18.35;;
40649;SDS011;26342;42.826;23.992;2024-01-15T01:42:38;34.67;;;17.38;;
40649;SDS011;26342;42.826;23.992;2024-01-15T01:45:03;36.30;;;16.25;;
40649;SDS011;26342;42.826;23.992;2024-01-15T01:47:29;36.50;;;14.85;;
40649;SDS011;26342;42.826;23.992;2024-01-15T01:49:55;28.08;;;13.38;;
40649;SDS011;26342;42.826;23.992;2024-01-15T01:52:20;22.52;;;12.43;;
40649;SDS011;26342;42.826;23.992;2024-01-15T01:54:46;25.63;;;12.80;;
40649;SDS011;26342;42.826;23.992;2024-01-15T01:57:11;47.20;;;15.82;;
40649;SDS011;26342;42.826;23.992;2024-01-15T01:59:37;40.25;;;18.00;;
40649;SDS011;26342;42.826;23.992;2024-01-15T02:02:03;31.40;;;14.98;;
40649;SDS011;26342;42.826;23.992;2024-01-15T02:04:31;26.98;;;14.13;;
40649;SDS011;26342;42.826;23.992;2024-01-15T02:06:57;26.55;;;15.25;;
40649;SDS011;26342;42.826;23.992;2024-01-15T02:09:23;27.27;;;15.27;;
40649;SDS011;26342;42.826;23.992;2024-01-15T02:11:49;33.42;;;16.17;;
40649;SDS011;26342;42.826;23.992;2024-01-15T02:14:15;37.17;;;15.38;;
40649;SDS011;26342;42.826;23.992;2024-01-15T02:16:41;36.67;;;14.02;;
40649;SDS011;26342;42.826;23.992;2024-01-15T02:19:06;23.33;;;13.45;;
40649;SDS011;26342;42.826;23.992;2024-01-15T02:21:33;21.73;;;11.40;;
40649;SDS011;26342;42.826;23.992;2024-01-15T02:23:58;33.40;;;16.35;;
40649;SDS011;26342;42.826;23.992;2024-01-15T02:26:24;36.58;;;16.40;;
40649;SDS011;26342;42.826;23.992;2024-01-15T02:28:50;33.60;;;16.90;;
40649;SDS011;26342;42.826;23.992;2024-01-15T02:31:16;41.63;;;17.02;;
40649;SDS011;26342;42.826;23.992;2024-01-15T02:33:43;34.95;;;16.15;;
40649;SDS011;26342;42.826;23.992;2024-01-15T02:36:09;31.13;;;17.55;;
40649;SDS011;26342;42.826;23.992;2024-01-15T02:38:34;36.25;;;14.63;;
40649;SDS011;26342;42.826;23.992;2024-01-15T02:41:00;51.75;;;20.20;;
40649;SDS011;26342;42.826;23.992;2024-01-15T02:43:25;44.13;;;18.77;;
40649;SDS011;26342;42.826;23.992;2024-01-15T02:45:51;38.72;;;17.50;;
40649;SDS011;26342;42.826;23.992;2024-01-15T02:48:17;44.20;;;17.85;;
40649;SDS011;26342;42.826;23.992;2024-01-15T02:50:46;25.58;;;13.38;;
40649;SDS011;26342;42.826;23.992;2024-01-15T02:53:14;26.92;;;13.57;;
40649;SDS011;26342;42.826;23.992;2024-01-15T02:55:40;26.50;;;12.75;;
40649;SDS011;26342;42.826;23.992;2024-01-15T02:58:06;25.50;;;14.27;;
40649;SDS011;26342;42.826;23.992;2024-01-15T03:00:32;25.17;;;10.20;;
40649;SDS011;26342;42.826;23.992;2024-01-15T03:02:58;27.10;;;10.10;;
40649;SDS011;26342;42.826;23.992;2024-01-15T03:05:24;37.13;;;17.00;;
40649;SDS011;26342;42.826;23.992;2024-01-15T03:07:49;28.40;;;13.75;;
40649;SDS011;26342;42.826;23.992;2024-01-15T03:10:14;26.33;;;14.52;;
40649;SDS011;26342;42.826;23.992;2024-01-15T03:12:40;29.15;;;14.02;;
40649;SDS011;26342;42.826;23.992;2024-01-15T03:15:06;25.58;;;12.90;;
40649;SDS011;26342;42.826;23.992;2024-01-15T03:17:32;19.77;;;10.45;;
40649;SDS011;26342;42.826;23.992;2024-01-15T03:19:57;26.35;;;12.50;;
40649;SDS011;26342;42.826;23.992;2024-01-15T03:22:23;29.17;;;13.82;;
40649;SDS011;26342;42.826;23.992;2024-01-15T03:24:48;27.55;;;10.13;;
40649;SDS011;26342;42.826;23.992;2024-01-15T03:27:14;20.13;;;10.02;;
40649;SDS011;26342;42.826;23.992;2024-01-15T03:29:40;22.17;;;9.52;;
40649;SDS011;26342;42.826;23.992;2024-01-15T03:32:06;10.68;;;6.93;;
40649;SDS011;26342;42.826;23.992;2024-01-15T03:34:32;8.43;;;4.70;;
40649;SDS011;26342;42.826;23.992;2024-01-15T03:36:57;17.38;;;8.55;;
40649;SDS011;26342;42.826;23.992;2024-01-15T03:39:24;9.63;;;6.13;;
40649;SDS011;26342;42.826;23.992;2024-01-15T03:41:50;13.43;;;6.03;;
40649;SDS011;26342;42.826;23.992;2024-01-15T03:44:15;13.50;;;7.80;;
40649;SDS011;26342;42.826;23.992;2024-01-15T03:46:41;9.57;;;6.32;;
40649;SDS011;26342;42.826;23.992;2024-01-15T03:49:06;16.10;;;7.65;;
40649;SDS011;26342;42.826;23.992;2024-01-15T03:51:32;13.35;;;9.07;;
40649;SDS011;26342;42.826;23.992;2024-01-15T03:53:57;14.05;;;7.03;;
40649;SDS011;26342;42.826;23.992;2024-01-15T03:56:23;13.45;;;8.32;;
40649;SDS011;26342;42.826;23.992;2024-01-15T03:58:48;21.15;;;8.93;;
40649;SDS011;26342;42.826;23.992;2024-01-15T04:01:14;13.98;;;7.00;;
40649;SDS011;26342;42.826;23.992;2024-01-15T04:03:40;4.28;;;3.88;;
40649;SDS011;26342;42.826;23.992;2024-01-15T04:06:06;7.57;;;5.07;;
40649;SDS011;26342;42.826;23.992;2024-01-15T04:08:31;11.68;;;5.93;;
40649;SDS011;26342;42.826;23.992;2024-01-15T04:10:57;12.45;;;5.72;;
40649;SDS011;26342;42.826;23.992;2024-01-15T04:13:23;8.88;;;4.05;;
40649;SDS011;26342;42.826;23.992;2024-01-15T04:15:48;18.08;;;6.90;;
40649;SDS011;26342;42.826;23.992;2024-01-15T04:18:15;14.35;;;8.75;;
40649;SDS011;26342;42.826;23.992;2024-01-15T04:20:41;20.25;;;9.27;;
40649;SDS011;26342;42.826;23.992;2024-01-15T04:23:06;23.38;;;10.52;;
40649;SDS011;26342;42.826;23.992;2024-01-15T04:25:32;29.63;;;12.48;;
40649;SDS011;26342;42.826;23.992;2024-01-15T04:27:58;10.73;;;7.55;;
40649;SDS011;26342;42.826;23.992;2024-01-15T04:30:24;21.75;;;10.02;;
40649;SDS011;26342;42.826;23.992;2024-01-15T04:32:49;32.63;;;14.18;;
40649;SDS011;26342;42.826;23.992;2024-01-15T04:35:15;32.15;;;15.15;;
40649;SDS011;26342;42.826;23.992;2024-01-15T04:37:41;31.42;;;17.55;;
40649;SDS011;26342;42.826;23.992;2024-01-15T04:40:06;17.80;;;10.15;;
40649;SDS011;26342;42.826;23.992;2024-01-15T04:42:32;34.83;;;12.63;;
40649;SDS011;26342;42.826;23.992;2024-01-15T04:44:58;31.30;;;10.75;;
40649;SDS011;26342;42.826;23.992;2024-01-15T04:47:24;16.65;;;11.30;;
40649;SDS011;26342;42.826;23.992;2024-01-15T04:49:49;24.80;;;11.73;;
40649;SDS011;26342;42.826;23.992;2024-01-15T04:52:14;38.60;;;14.98;;
40649;SDS011;26342;42.826;23.992;2024-01-15T04:54:40;34.75;;;12.98;;
40649;SDS011;26342;42.826;23.992;2024-01-15T04:57:06;26.58;;;12.70;;
40649;SDS011;26342;42.826;23.992;2024-01-15T04:59:32;22.30;;;12.85;;
40649;SDS011;26342;42.826;23.992;2024-01-15T05:01:57;42.03;;;19.63;;
40649;SDS011;26342;42.826;23.992;2024-01-15T05:04:23;31.95;;;17.58;;
40649;SDS011;26342;42.826;23.992;2024-01-15T05:06:49;40.05;;;18.33;;
40649;SDS011;26342;42.826;23.992;2024-01-15T05:09:15;53.67;;;22.83;;
40649;SDS011;26342;42.826;23.992;2024-01-15T05:11:40;59.17;;;26.45;;
40649;SDS011;26342;42.826;23.992;2024-01-15T05:14:06;57.00;;;27.20;;
40649;SDS011;26342;42.826;23.992;2024-01-15T05:16:31;26.95;;;14.48;;
40649;SDS011;26342;42.826;23.992;2024-01-15T05:18:57;37.88;;;20.23;;
40649;SDS011;26342;42.826;23.992;2024-01-15T05:21:23;29.90;;;17.08;;
40649;SDS011;26342;42.826;23.992;2024-01-15T05:23:50;24.33;;;12.38;;
40649;SDS011;26342;42.826;23.992;2024-01-15T05:26:15;24.23;;;13.13;;
40649;SDS011;26342;42.826;23.992;2024-01-15T05:28:41;14.13;;;7.97;;
40649;SDS011;26342;42.826;23.992;2024-01-15T05:31:10;23.45;;;10.27;;
40649;SDS011;26342;42.826;23.992;2024-01-15T05:33:37;15.70;;;6.18;;
40649;SDS011;26342;42.826;23.992;2024-01-15T05:36:02;22.40;;;9.00;;
40649;SDS011;26342;42.826;23.992;2024-01-15T05:38:28;11.93;;;5.78;;
40649;SDS011;26342;42.826;23.992;2024-01-15T05:40:54;9.23;;;5.30;;
40649;SDS011;26342;42.826;23.992;2024-01-15T05:43:20;18.58;;;5.75;;
40649;SDS011;26342;42.826;23.992;2024-01-15T05:45:46;13.55;;;7.20;;
40649;SDS011;26342;42.826;23.992;2024-01-15T05:48:11;19.13;;;7.50;;
40649;SDS011;26342;42.826;23.992;2024-01-15T05:50:37;23.85;;;12.18;;
40649;SDS011;26342;42.826;23.992;2024-01-15T05:53:03;24.65;;;10.40;;
40649;SDS011;26342;42.826;23.992;2024-01-15T05:55:29;25.17;;;11.63;;
40649;SDS011;26342;42.826;23.992;2024-01-15T05:57:54;24.92;;;12.45;;
40649;SDS011;26342;42.826;23.992;2024-01-15T06:00:20;31.35;;;15.10;;
40649;SDS011;26342;42.826;23.992;2024-01-15T06:02:45;21.00;;;10.50;;
40649;SDS011;26342;42.826;23.992;2024-01-15T06:05:11;29.30;;;13.55;;
40649;SDS011;26342;42.826;23.992;2024-01-15T06:07:36;13.32;;;8.10;;
40649;SDS011;26342;42.826;23.992;2024-01-15T06:10:02;13.13;;;6.93;;
40649;SDS011;26342;42.826;23.992;2024-01-15T06:12:29;16.35;;;7.95;;
40649;SDS011;26342;42.826;23.992;2024-01-15T06:14:55;20.63;;;10.85;;
40649;SDS011;26342;42.826;23.992;2024-01-15T06:17:20;23.35;;;11.95;;
40649;SDS011;26342;42.826;23.992;2024-01-15T06:19:46;27.77;;;15.32;;
40649;SDS011;26342;42.826;23.992;2024-01-15T06:22:11;45.97;;;20.73;;
40649;SDS011;26342;42.826;23.992;2024-01-15T06:24:38;54.53;;;20.05;;
40649;SDS011;26342;42.826;23.992;2024-01-15T06:27:03;27.73;;;15.18;;
40649;SDS011;26342;42.826;23.992;2024-01-15T06:29:29;24.08;;;9.70;;
40649;SDS011;26342;42.826;23.992;2024-01-15T06:31:55;21.70;;;9.02;;
40649;SDS011;26342;42.826;23.992;2024-01-15T06:34:20;14.88;;;8.18;;
40649;SDS011;26342;42.826;23.992;2024-01-15T06:36:46;17.92;;;7.80;;
40649;SDS011;26342;42.826;23.992;2024-01-15T06:39:11;27.88;;;11.40;;
40649;SDS011;26342;42.826;23.992;2024-01-15T06:41:37;19.77;;;8.05;;
40649;SDS011;26342;42.826;23.992;2024-01-15T06:44:08;28.85;;;10.35;;
40649;SDS011;26342;42.826;23.992;2024-01-15T06:46:41;24.10;;;8.43;;
40649;SDS011;26342;42.826;23.992;2024-01-15T06:49:07;27.13;;;13.18;;
40649;SDS011;26342;42.826;23.992;2024-01-15T06:51:32;26.48;;;12.88;;
